createdAt,value
2022-12-17T00:01:00.022Z,23.75
2022-12-17T00:04:04.439Z,21.65
2022-12-17T00:07:08.318Z,22.30
2022-12-17T00:10:12.176Z,23.73
2022-12-17T00:13:16.394Z,19.67
2022-12-17T00:16:20.807Z,22.85
2022-12-17T00:19:24.651Z,20.58
2022-12-17T00:22:28.674Z,21.35
2022-12-17T00:25:32.813Z,18.30
2022-12-17T00:28:37.064Z,20.58
2022-12-17T00:31:41.847Z,19.98
2022-12-17T00:34:45.962Z,19.60
2022-12-17T00:38:04.078Z,21.80
2022-12-17T00:41:12.354Z,21.13
2022-12-17T00:44:16.636Z,20.52
2022-12-17T00:47:20.800Z,22.77
2022-12-17T00:50:26.535Z,21.70
2022-12-17T00:53:30.706Z,20.48
2022-12-17T00:56:34.944Z,17.73
2022-12-17T00:59:38.978Z,18.08
2022-12-17T01:02:44.229Z,19.13
2022-12-17T01:05:48.101Z,18.23
2022-12-17T01:08:52.060Z,20.67
2022-12-17T01:12:04.036Z,19.38
2022-12-17T01:15:08.569Z,17.60
2022-12-17T01:18:12.608Z,17.77
2022-12-17T01:21:16.504Z,18.98
2022-12-17T01:24:20.552Z,16.88
2022-12-17T01:27:25.072Z,17.65
2022-12-17T01:30:29.475Z,18.38
2022-12-17T01:33:33.999Z,16.80
2022-12-17T01:36:38.017Z,13.95
2022-12-17T01:39:41.993Z,14.05
2022-12-17T01:42:46.011Z,14.85
2022-12-17T01:45:56.992Z,14.02
2022-12-17T01:49:04.587Z,12.77
2022-12-17T01:52:10.906Z,12.40
2022-12-17T01:55:15.584Z,10.50
2022-12-17T01:58:19.625Z,11.48
2022-12-17T02:01:26.446Z,10.23
2022-12-17T02:04:31.272Z,9.52
2022-12-17T02:07:54.630Z,10.48
2022-12-17T02:11:44.207Z,10.18
2022-12-17T02:15:16.473Z,10.00
2022-12-17T02:18:27.052Z,9.25
2022-12-17T02:21:31.510Z,11.15
2022-12-17T02:24:52.472Z,9.77
2022-12-17T02:27:57.580Z,9.68
2022-12-17T02:31:01.847Z,9.90
2022-12-17T02:34:07.392Z,10.48
2022-12-17T02:37:11.382Z,11.50
2022-12-17T02:40:15.893Z,11.25
2022-12-17T02:43:22.853Z,10.23
2022-12-17T02:46:28.442Z,8.93
2022-12-17T02:49:32.663Z,9.40
2022-12-17T02:52:39.524Z,9.40
2022-12-17T02:55:43.548Z,10.45
2022-12-17T02:58:47.544Z,8.90
2022-12-17T03:01:51.911Z,10.98
2022-12-17T03:04:56.345Z,9.85
2022-12-17T03:08:03.568Z,11.13
2022-12-17T03:11:07.511Z,10.57
2022-12-17T03:14:11.379Z,10.25
2022-12-17T03:17:15.393Z,11.63
2022-12-17T03:20:19.387Z,9.40
2022-12-17T03:23:25.676Z,8.60
2022-12-17T03:26:29.617Z,9.02
2022-12-17T03:29:33.745Z,8.77
2022-12-17T03:32:37.772Z,7.97
2022-12-17T03:35:41.745Z,9.50
2022-12-17T03:38:45.725Z,10.10
2022-12-17T03:41:49.686Z,13.77
2022-12-17T03:44:54.022Z,13.00
2022-12-17T03:47:58.258Z,13.90
2022-12-17T03:51:02.370Z,13.60
2022-12-17T03:54:07.380Z,12.20
2022-12-17T03:57:15.935Z,10.70
2022-12-17T04:00:20.508Z,11.70
2022-12-17T04:03:24.521Z,12.73
2022-12-17T04:06:28.579Z,10.93
2022-12-17T04:09:32.488Z,12.15
2022-12-17T04:12:36.542Z,12.63
2022-12-17T04:15:40.418Z,10.85
2022-12-17T04:18:44.741Z,11.50
2022-12-17T04:21:48.850Z,13.15
2022-12-17T04:24:53.001Z,14.38
2022-12-17T04:27:57.092Z,13.27
2022-12-17T04:31:01.169Z,15.07
2022-12-17T04:34:05.279Z,15.82
2022-12-17T04:37:09.089Z,14.02
2022-12-17T04:40:13.056Z,12.07
2022-12-17T04:43:27.445Z,11.10
2022-12-17T04:46:31.606Z,10.45
2022-12-17T04:49:35.682Z,13.07
2022-12-17T04:52:39.755Z,12.15
2022-12-17T04:55:43.659Z,12.27
2022-12-17T04:58:47.741Z,12.30
2022-12-17T05:01:52.034Z,12.57
2022-12-17T05:04:55.976Z,13.32
2022-12-17T05:07:59.959Z,12.30
2022-12-17T05:11:04.076Z,11.45
2022-12-17T05:14:08.076Z,12.13
2022-12-17T05:17:12.312Z,13.38
2022-12-17T05:20:16.299Z,12.10
2022-12-17T05:23:27.447Z,12.15
2022-12-17T05:26:43.552Z,13.07
2022-12-17T05:29:47.635Z,13.52
2022-12-17T05:32:51.648Z,13.65
2022-12-17T05:35:55.652Z,13.18
2022-12-17T05:38:59.851Z,15.32
2022-12-17T05:42:04.161Z,14.88
2022-12-17T05:45:08.341Z,14.20
2022-12-17T05:48:16.771Z,14.27
2022-12-17T05:51:20.731Z,9.90
2022-12-17T05:54:25.419Z,8.95
2022-12-17T05:57:29.777Z,8.77
2022-12-17T06:00:34.210Z,8.93
2022-12-17T06:03:38.990Z,8.13
2022-12-17T06:06:43.736Z,9.63
2022-12-17T06:09:48.039Z,11.70
2022-12-17T06:12:52.021Z,12.75
2022-12-17T06:15:56.144Z,12.75
2022-12-17T06:19:00.447Z,12.85
2022-12-17T06:22:04.678Z,14.25
2022-12-17T06:25:08.836Z,12.77
2022-12-17T06:28:20.068Z,12.77
2022-12-17T06:31:24.152Z,13.55
2022-12-17T06:34:28.302Z,14.27
2022-12-17T06:37:32.418Z,11.68
2022-12-17T06:40:36.736Z,13.27
2022-12-17T06:43:40.623Z,15.30
2022-12-17T06:46:44.541Z,14.95
2022-12-17T06:49:48.848Z,14.45
2022-12-17T06:52:52.919Z,14.93
2022-12-17T06:55:57.369Z,12.30
2022-12-17T06:59:02.233Z,11.63
2022-12-17T07:02:06.802Z,10.35
2022-12-17T07:05:10.737Z,7.40
2022-12-17T07:08:19.173Z,7.28
2022-12-17T07:11:23.190Z,8.20
2022-12-17T07:14:27.250Z,9.13
2022-12-17T07:17:31.651Z,9.75
2022-12-17T07:20:35.801Z,9.05
2022-12-17T07:23:39.929Z,9.95
2022-12-17T07:26:43.813Z,10.07
2022-12-17T07:29:47.805Z,9.18
2022-12-17T07:32:51.785Z,11.07
2022-12-17T07:35:56.272Z,10.63
2022-12-17T07:39:01.216Z,12.13
2022-12-17T07:42:05.265Z,10.88
2022-12-17T07:45:09.293Z,9.75
2022-12-17T07:48:18.355Z,11.43
2022-12-17T07:51:22.900Z,11.68
2022-12-17T07:54:27.218Z,11.80
2022-12-17T07:57:31.645Z,11.73
2022-12-17T08:00:35.757Z,10.38
2022-12-17T08:03:40.657Z,12.60
2022-12-17T08:06:45.261Z,11.25
2022-12-17T08:09:49.498Z,11.85
2022-12-17T08:12:53.660Z,12.00
2022-12-17T08:15:57.752Z,13.38
2022-12-17T08:19:01.653Z,13.02
2022-12-17T08:22:05.818Z,13.80
2022-12-17T08:25:09.706Z,14.32
2022-12-17T08:28:49.127Z,13.02
2022-12-17T08:31:44.142Z,12.82
2022-12-17T08:34:48.195Z,14.30
2022-12-17T08:37:52.124Z,14.23
2022-12-17T08:40:56.297Z,14.15
2022-12-17T08:44:00.171Z,13.85
2022-12-17T08:47:04.223Z,16.23
2022-12-17T08:50:08.370Z,15.85
2022-12-17T08:53:20.306Z,16.08
2022-12-17T08:56:24.638Z,17.90
2022-12-17T08:59:28.549Z,18.25
2022-12-17T09:02:32.784Z,15.73
2022-12-17T09:05:37.037Z,18.42
2022-12-17T09:08:40.960Z,18.35
2022-12-17T09:11:45.065Z,18.63
2022-12-17T09:14:49.124Z,16.13
2022-12-17T09:17:53.149Z,18.27
2022-12-17T09:20:57.291Z,17.02
2022-12-17T09:24:01.361Z,18.17
2022-12-17T09:27:05.547Z,19.25
2022-12-17T09:30:09.864Z,20.50
2022-12-17T09:33:14.047Z,18.35
2022-12-17T09:36:20.646Z,19.15
2022-12-17T09:39:25.099Z,22.38
2022-12-17T09:42:58.282Z,19.98
2022-12-17T09:46:16.018Z,21.92
2022-12-17T09:49:24.891Z,20.52
2022-12-17T09:52:51.716Z,22.52
2022-12-17T09:56:05.747Z,19.85
2022-12-17T09:59:09.879Z,21.38
2022-12-17T10:02:30.699Z,20.67
2022-12-17T10:05:43.161Z,23.58
2022-12-17T10:08:47.357Z,25.52
2022-12-17T10:11:54.388Z,26.25
2022-12-17T10:14:58.521Z,24.17
2022-12-17T10:18:02.742Z,23.10
2022-12-17T10:21:13.651Z,25.73
2022-12-17T10:24:28.688Z,22.90
2022-12-17T10:27:38.493Z,26.63
2022-12-17T10:30:42.332Z,23.25
2022-12-17T10:33:46.471Z,25.73
2022-12-17T10:36:50.541Z,25.45
2022-12-17T10:39:54.773Z,25.83
2022-12-17T10:42:59.782Z,27.73
2022-12-17T10:46:15.318Z,28.50
2022-12-17T10:49:40.423Z,27.23
2022-12-17T10:52:50.993Z,28.80
2022-12-17T10:55:55.254Z,32.25
2022-12-17T10:59:11.518Z,28.45
2022-12-17T11:02:18.918Z,27.42
2022-12-17T11:05:34.714Z,25.08
2022-12-17T11:08:40.160Z,28.63
2022-12-17T11:11:44.739Z,26.63
2022-12-17T11:14:52.898Z,26.83
2022-12-17T11:17:59.393Z,25.38
2022-12-17T11:21:34.036Z,25.92
2022-12-17T11:25:00.853Z,25.13
2022-12-17T11:28:12.268Z,23.52
2022-12-17T11:31:29.218Z,26.38
2022-12-17T11:34:56.543Z,24.88
2022-12-17T11:38:32.733Z,26.25
2022-12-17T11:41:44.760Z,25.73
2022-12-17T11:44:59.071Z,27.20
2022-12-17T11:48:08.564Z,24.95
2022-12-17T11:51:21.705Z,26.85
2022-12-17T11:54:44.016Z,24.90
2022-12-17T11:58:14.270Z,26.25
2022-12-17T12:01:37.272Z,25.35
2022-12-17T12:04:59.465Z,24.58
2022-12-17T12:08:15.659Z,27.02
2022-12-17T12:11:33.563Z,26.70
2022-12-17T12:14:49.867Z,24.33
2022-12-17T12:18:08.529Z,23.48
2022-12-17T12:21:38.347Z,24.10
2022-12-17T12:25:00.687Z,22.45
2022-12-17T12:28:37.149Z,21.95
2022-12-17T12:31:59.890Z,26.50
2022-12-17T12:35:04.425Z,26.77
2022-12-17T12:38:08.405Z,23.40
2022-12-17T12:41:20.897Z,22.83
2022-12-17T12:44:38.584Z,23.98
2022-12-17T12:47:53.151Z,23.30
2022-12-17T12:51:04.169Z,21.38
2022-12-17T12:54:18.965Z,24.83
2022-12-17T12:57:23.805Z,25.25
2022-12-17T13:00:45.085Z,22.50
2022-12-17T13:03:56.902Z,23.67
2022-12-17T13:06:54.094Z,26.25
2022-12-17T13:09:50.289Z,25.45
2022-12-17T13:12:47.135Z,27.25
2022-12-17T13:15:41.047Z,24.23
2022-12-17T13:18:35.762Z,23.60
2022-12-17T13:21:21.582Z,26.40
2022-12-17T13:24:23.098Z,27.10
2022-12-17T13:27:48.768Z,24.85
2022-12-17T13:30:38.710Z,27.08
2022-12-17T13:33:45.042Z,28.33
2022-12-17T13:36:37.721Z,26.20
2022-12-17T13:39:54.752Z,29.98
2022-12-17T13:42:40.404Z,26.45
2022-12-17T13:45:27.682Z,25.30
2022-12-17T13:48:22.903Z,24.75
2022-12-17T13:51:20.193Z,26.52
2022-12-17T13:54:06.162Z,29.05
2022-12-17T13:56:52.199Z,27.10
2022-12-17T13:59:38.395Z,27.30
2022-12-17T14:02:33.910Z,25.63
2022-12-17T14:05:43.202Z,26.73
2022-12-17T14:08:32.576Z,24.67
2022-12-17T14:11:37.236Z,25.88
2022-12-17T14:14:33.687Z,25.52
2022-12-17T14:17:24.825Z,27.88
2022-12-17T14:20:44.687Z,24.60
2022-12-17T14:23:32.713Z,26.30
2022-12-17T14:26:18.397Z,25.50
2022-12-17T14:29:13.328Z,29.48
2022-12-17T14:32:02.365Z,25.27
2022-12-17T14:34:48.307Z,23.50
2022-12-17T14:37:34.178Z,23.35
2022-12-17T14:40:20.827Z,27.20
2022-12-17T14:43:07.430Z,24.50
2022-12-17T14:46:30.740Z,24.42
2022-12-17T14:49:21.081Z,24.67
2022-12-17T14:52:27.148Z,25.70
2022-12-17T14:55:39.551Z,24.83
2022-12-17T14:58:27.108Z,23.83
2022-12-17T15:01:14.450Z,22.48
2022-12-17T15:04:00.130Z,24.13
2022-12-17T15:06:45.798Z,23.48
2022-12-17T15:09:39.142Z,24.75
2022-12-17T15:12:25.487Z,22.83
2022-12-17T15:15:15.820Z,22.15
2022-12-17T15:18:01.692Z,22.77
2022-12-17T15:20:47.360Z,23.25
2022-12-17T15:23:33.623Z,22.33
2022-12-17T15:26:19.921Z,24.40
2022-12-17T15:29:05.561Z,22.33
2022-12-17T15:31:51.238Z,25.52
2022-12-17T15:34:37.029Z,24.25
2022-12-17T15:37:26.328Z,25.20
2022-12-17T15:40:12.530Z,24.60
2022-12-17T15:43:13.334Z,23.58
2022-12-17T15:46:00.990Z,23.40
2022-12-17T15:48:50.420Z,24.55
2022-12-17T15:51:36.823Z,24.25
2022-12-17T15:54:22.231Z,23.98
2022-12-17T15:57:08.550Z,24.50
2022-12-17T15:59:54.366Z,21.50
2022-12-17T16:02:40.060Z,21.30
2022-12-17T16:05:25.614Z,22.88
2022-12-17T16:08:11.255Z,23.85
2022-12-17T16:10:57.611Z,25.25
2022-12-17T16:13:44.548Z,24.92
2022-12-17T16:16:31.218Z,24.00
2022-12-17T16:19:17.473Z,23.08
2022-12-17T16:22:12.045Z,23.05
2022-12-17T16:24:57.586Z,24.48
2022-12-17T16:27:44.529Z,21.85
2022-12-17T16:30:30.176Z,21.23
2022-12-17T16:33:15.660Z,24.85
2022-12-17T16:36:01.814Z,26.83
2022-12-17T16:38:50.574Z,22.73
2022-12-17T16:41:36.641Z,22.60
2022-12-17T16:44:21.969Z,21.98
2022-12-17T16:47:09.867Z,22.30
2022-12-17T16:49:56.625Z,23.00
2022-12-17T16:52:42.548Z,21.83
2022-12-17T16:55:28.167Z,23.52
2022-12-17T16:58:17.127Z,22.77
2022-12-17T17:01:03.805Z,24.25
2022-12-17T17:03:50.108Z,21.95
2022-12-17T17:06:45.704Z,22.40
2022-12-17T17:09:31.449Z,21.73
2022-12-17T17:12:18.681Z,20.60
2022-12-17T17:15:04.981Z,22.33
2022-12-17T17:17:54.838Z,22.02
2022-12-17T17:20:44.172Z,20.85
2022-12-17T17:23:30.878Z,22.48
2022-12-17T17:26:17.559Z,22.75
2022-12-17T17:29:04.098Z,23.20
2022-12-17T17:34:55.731Z,23.40
2022-12-17T17:37:45.118Z,22.48
2022-12-17T17:40:30.385Z,22.23
2022-12-17T17:43:15.837Z,23.15
2022-12-17T17:46:13.628Z,23.80
2022-12-17T17:49:01.011Z,22.90
2022-12-17T17:54:52.314Z,27.77
2022-12-17T17:57:38.076Z,25.42
2022-12-17T18:00:23.476Z,23.00
2022-12-17T18:03:09.201Z,21.63
2022-12-17T18:05:55.134Z,23.45
2022-12-17T18:08:41.859Z,22.00
2022-12-17T18:11:29.866Z,24.70
2022-12-17T18:14:15.652Z,22.92
2022-12-17T18:17:01.212Z,19.95
2022-12-17T18:19:48.637Z,22.60
2022-12-17T18:22:34.316Z,22.58
2022-12-17T18:25:20.097Z,22.05
2022-12-17T18:28:05.782Z,22.10
2022-12-17T18:30:51.338Z,23.95
2022-12-17T18:33:39.086Z,25.05
2022-12-17T18:36:39.656Z,25.15
2022-12-17T18:39:25.757Z,22.40
2022-12-17T18:42:29.727Z,23.67
2022-12-17T18:45:15.339Z,23.40
2022-12-17T18:48:00.907Z,21.05
2022-12-17T18:50:47.050Z,21.58
2022-12-17T18:53:33.572Z,23.52
2022-12-17T18:56:44.742Z,22.45
2022-12-17T18:59:29.264Z,23.73
2022-12-17T19:02:16.175Z,21.90
2022-12-17T19:05:02.092Z,23.35
2022-12-17T19:07:47.603Z,22.90
2022-12-17T19:10:35.163Z,25.50
2022-12-17T19:13:20.919Z,25.95
2022-12-17T19:16:19.033Z,26.27
2022-12-17T19:19:05.832Z,25.95
2022-12-17T19:21:53.611Z,27.13
2022-12-17T19:24:39.554Z,29.33
2022-12-17T19:27:25.455Z,29.92
2022-12-17T19:30:11.632Z,24.73
2022-12-17T19:32:57.139Z,24.00
2022-12-17T19:35:42.677Z,25.05
2022-12-17T19:38:28.887Z,25.65
2022-12-17T19:41:17.270Z,25.00
2022-12-17T19:44:08.633Z,26.80
2022-12-17T19:46:54.511Z,27.02
2022-12-17T19:49:40.059Z,24.15
2022-12-17T19:52:25.974Z,24.38
2022-12-17T19:55:11.748Z,25.60
2022-12-17T19:57:57.507Z,25.25
2022-12-17T20:00:43.183Z,26.15
2022-12-17T20:03:29.428Z,24.23
2022-12-17T20:06:17.498Z,27.08
2022-12-17T20:09:05.283Z,25.55
2022-12-17T20:11:50.741Z,23.92
2022-12-17T20:14:37.663Z,27.20
2022-12-17T20:17:24.720Z,23.95
2022-12-17T20:20:10.622Z,23.30
2022-12-17T20:22:55.967Z,26.10
2022-12-17T20:25:41.623Z,23.38
2022-12-17T20:28:27.233Z,24.42
2022-12-17T20:31:13.551Z,24.08
2022-12-17T20:34:01.095Z,25.73
2022-12-17T20:36:50.965Z,22.65
2022-12-17T20:39:37.091Z,24.15
2022-12-17T20:42:22.770Z,24.42
2022-12-17T20:45:08.799Z,24.35
2022-12-17T20:47:54.981Z,22.92
2022-12-17T20:50:41.013Z,20.58
2022-12-17T20:53:26.902Z,25.75
2022-12-17T20:56:15.078Z,23.90
2022-12-17T20:59:07.335Z,23.33
2022-12-17T21:01:56.064Z,51.13
2022-12-17T21:04:42.213Z,22.75
2022-12-17T21:07:28.213Z,25.98
2022-12-17T21:10:14.180Z,22.20
2022-12-17T21:13:18.544Z,22.52
2022-12-17T21:16:10.810Z,22.63
2022-12-17T21:18:57.945Z,20.02
2022-12-17T21:21:44.304Z,23.58
2022-12-17T21:24:30.122Z,22.63
2022-12-17T21:27:17.248Z,21.50
2022-12-17T21:30:07.608Z,20.60
2022-12-17T21:32:59.958Z,22.55
2022-12-17T21:35:45.462Z,22.63
2022-12-17T21:38:31.930Z,22.02
2022-12-17T21:41:23.637Z,25.73
2022-12-17T21:44:13.154Z,22.20
2022-12-17T21:46:59.990Z,21.90
2022-12-17T21:49:46.059Z,22.40
2022-12-17T21:52:31.521Z,21.58
2022-12-17T21:55:17.077Z,22.42
2022-12-17T21:58:03.795Z,26.83
2022-12-17T22:00:49.357Z,21.90
2022-12-17T22:03:34.759Z,21.35
2022-12-17T22:06:23.817Z,21.80
2022-12-17T22:09:21.089Z,21.08
2022-12-17T22:12:36.494Z,22.08
2022-12-17T22:15:25.717Z,20.75
2022-12-17T22:18:15.883Z,19.83
2022-12-17T22:21:02.513Z,20.10
2022-12-17T22:23:49.214Z,22.33
2022-12-17T22:26:35.228Z,24.02
2022-12-17T22:29:40.228Z,24.90
2022-12-17T22:32:45.861Z,18.73
2022-12-17T22:36:38.511Z,21.70
2022-12-17T22:42:43.751Z,21.75
2022-12-17T22:44:37.549Z,21.92
2022-12-17T22:45:19.195Z,20.60
2022-12-17T22:48:05.918Z,22.85
2022-12-17T22:51:02.530Z,21.27
2022-12-17T22:53:51.364Z,20.88
2022-12-17T22:57:35.942Z,20.90
2022-12-17T22:59:45.382Z,19.77
2022-12-17T23:02:31.285Z,20.20
2022-12-17T23:05:16.785Z,20.27
2022-12-17T23:08:02.444Z,19.73
2022-12-17T23:10:47.943Z,21.35
2022-12-17T23:13:34.384Z,22.38
2022-12-17T23:16:22.406Z,22.70
2022-12-17T23:19:08.250Z,24.10
2022-12-17T23:21:53.675Z,24.13
2022-12-17T23:24:39.276Z,23.52
2022-12-17T23:27:25.180Z,20.45
2022-12-17T23:30:13.238Z,22.33
2022-12-17T23:32:58.428Z,24.92
2022-12-17T23:35:44.102Z,23.98
2022-12-17T23:38:29.641Z,22.27
2022-12-17T23:41:24.047Z,22.48
2022-12-17T23:44:09.821Z,22.73
2022-12-17T23:46:55.563Z,21.98
2022-12-17T23:49:41.798Z,21.30
2022-12-17T23:52:27.858Z,22.73
2022-12-17T23:55:13.781Z,20.40
2022-12-17T23:58:00.474Z,21.10
